Time;durP1;ratioP1;P1;durP2;ratioP2;P2;SDS_P1;SDS_P2;PMS_P1;PMS_P2;Temp;Humidity;BMP_temperature;BMP_pressure;BME280_temperature;BME280_humidity;BME280_pressure;Samples;Min_cycle;Max_cycle;Signal;HPM_P1;HPM_P2
2023/09/26 11:46:47;;;;;;;4.50;4.10;;;;;;;30.75;29.18;101218.27;102729;1285;613283;-65
2023/09/26 11:49:16;;;;;;;5.90;4.20;;;;;;;30.95;29.01;101209.27;107790;1269;117486;-67
2023/09/26 11:51:44;;;;;;;4.80;4.00;;;;;;;31.00;28.37;101214.34;108115;1267;62568;-66
2023/09/26 11:54:14;;;;;;;9.50;4.30;;;;;;;30.94;28.10;101213.08;108044;1269;76295;-68
2023/09/26 11:56:43;;;;;;;5.80;4.60;;;;;;;30.78;27.70;101213.52;104992;1268;67240;-69
2023/09/26 11:59:11;;;;;;;8.20;4.60;;;;;;;30.59;27.65;101209.73;104490;1272;75214;-66
2023/09/26 12:01:43;;;;;;;6.10;4.30;;;;;;;30.41;27.95;101213.14;104484;1268;62461;-62
2023/09/26 12:04:12;;;;;;;5.90;4.00;;;;;;;30.35;27.96;101214.16;104590;1270;62547;-64
2023/09/26 12:06:40;;;;;;;5.20;4.40;;;;;;;30.29;28.18;101217.13;104558;1272;74678;-69
2023/09/26 12:09:10;;;;;;;6.60;4.30;;;;;;;30.24;28.19;101214.52;104498;1273;71149;-64
2023/09/26 12:11:39;;;;;;;6.90;4.60;;;;;;;30.19;28.75;101213.37;104334;1269;73927;-65
2023/09/26 12:14:07;;;;;;;6.00;4.90;;;;;;;30.14;28.86;101210.63;105041;1268;61977;-68
2023/09/26 12:16:35;;;;;;;7.80;4.70;;;;;;;30.10;28.91;101208.09;104735;1268;62552;-69
2023/09/26 12:19:04;;;;;;;8.30;5.10;;;;;;;30.03;29.35;101207.66;104522;1268;75922;-65
2023/09/26 12:21:32;;;;;;;8.10;4.90;;;;;;;29.91;29.07;101206.58;104665;1269;70467;-65
2023/09/26 12:23:59;;;;;;;7.70;5.30;;;;;;;29.79;29.63;101204.27;105391;1256;72741;-65
2023/09/26 12:26:28;;;;;;;9.20;6.50;;;;;;;29.73;29.88;101207.52;105136;1256;63065;-70
2023/09/26 12:28:56;;;;;;;7.10;6.20;;;;;;;29.66;29.82;101203.89;105400;1256;61445;-67
2023/09/26 12:31:24;;;;;;;6.70;6.10;;;;;;;29.58;29.94;101206.34;105295;1257;73103;-63
2023/09/26 12:33:52;;;;;;;6.40;5.60;;;;;;;29.49;30.28;101207.09;105278;1256;69816;-66
2023/09/26 12:36:20;;;;;;;7.10;6.10;;;;;;;29.46;30.60;101204.54;105093;1261;72754;-64
2023/09/26 12:38:48;;;;;;;7.80;7.00;;;;;;;29.46;30.34;101201.41;105205;1260;60104;-63
2023/09/26 12:41:16;;;;;;;8.00;6.90;;;;;;;29.43;30.58;101196.62;105125;1256;60470;-64
2023/09/26 12:43:44;;;;;;;7.60;6.70;;;;;;;29.43;31.21;101196.08;105195;1257;71922;-62
2023/09/26 12:46:12;;;;;;;12.40;7.90;;;;;;;29.45;31.12;101198.33;105168;1262;68870;-63
2023/09/26 12:48:40;;;;;;;8.70;7.90;;;;;;;29.45;30.97;101194.20;105298;1257;75786;-66
2023/09/26 12:51:08;;;;;;;10.50;8.20;;;;;;;29.43;30.96;101193.19;105213;1260;61995;-63
2023/09/26 12:53:35;;;;;;;9.30;8.30;;;;;;;29.36;30.97;101193.76;105300;1258;63019;-63
2023/09/26 12:56:03;;;;;;;9.70;8.30;;;;;;;29.33;31.31;101193.63;105456;1262;75709;-66
2023/09/26 12:58:31;;;;;;;13.60;9.50;;;;;;;29.32;31.18;101195.14;105202;1262;67519;-66
2023/09/26 13:00:59;;;;;;;10.90;9.20;;;;;;;29.28;31.18;101198.95;105380;1259;71289;-63
2023/09/26 13:03:27;;;;;;;10.40;9.40;;;;;;;29.20;31.82;101199.61;105363;1262;60091;-62
2023/09/26 13:05:55;;;;;;;11.70;10.20;;;;;;;29.15;31.74;101197.37;105349;1262;61470;-62
2023/09/26 13:08:23;;;;;;;10.50;9.50;;;;;;;29.03;31.72;101197.11;105483;1257;77128;-67
2023/09/26 13:10:51;;;;;;;11.20;10.10;;;;;;;28.92;32.01;101201.44;105285;1257;69885;-63
2023/09/26 13:13:19;;;;;;;10.90;9.70;;;;;;;28.83;32.43;101204.57;105278;1257;75299;-63
2023/09/26 13:15:47;;;;;;;12.40;10.70;;;;;;;28.70;32.45;101202.05;105205;1259;59731;-63
2023/09/26 13:18:14;;;;;;;13.00;11.20;;;;;;;28.61;32.80;101202.61;105398;1256;60905;-65
2023/09/26 13:20:42;;;;;;;12.50;11.10;;;;;;;28.54;32.99;101200.40;105388;1259;73761;-65
2023/09/26 13:23:10;;;;;;;13.50;12.10;;;;;;;28.50;32.59;101203.92;105509;1257;68814;-66
2023/09/26 13:25:38;;;;;;;18.80;11.70;;;;;;;28.42;32.96;101202.17;105282;1256;75076;-67
2023/09/26 13:28:08;;;;;;;11.30;10.00;;;;;;;28.33;33.06;101200.91;105754;1256;60777;-64
2023/09/26 13:30:35;;;;;;;12.30;10.90;;;;;;;28.28;33.31;101203.41;105484;1257;61659;-67
2023/09/26 13:33:07;;;;;;;13.30;10.70;;;;;;;28.25;33.59;101206.33;105109;1259;74504;-64
2023/09/26 13:35:34;;;;;;;11.10;9.80;;;;;;;28.21;34.00;101207.96;105332;1262;65806;-64
2023/09/26 13:38:02;;;;;;;13.10;9.60;;;;;;;28.14;34.08;101202.81;105330;1264;74713;-65
2023/09/26 13:40:32;;;;;;;15.10;11.30;;;;;;;28.05;34.17;101205.96;105456;1263;61780;-66
2023/09/26 13:43:00;;;;;;;11.20;9.90;;;;;;;27.97;34.51;101203.60;105436;1262;59600;-66
2023/09/26 13:45:27;;;;;;;14.20;10.20;;;;;;;27.90;34.74;101200.91;105330;1256;75116;-66
2023/09/26 13:47:56;;;;;;;10.80;9.70;;;;;;;27.79;35.10;101200.53;105398;1256;70414;-66
2023/09/26 13:50:24;;;;;;;11.70;9.70;;;;;;;27.71;35.16;101201.67;105383;1256;72432;-68
2023/09/26 13:52:52;;;;;;;12.90;10.00;;;;;;;27.62;35.77;101196.98;105499;1260;60117;-64
2023/09/26 13:55:20;;;;;;;12.10;9.10;;;;;;;27.52;36.30;101197.66;105273;1256;60083;-65
2023/09/26 13:57:51;;;;;;;12.70;8.90;;;;;;;27.41;36.54;101202.53;105459;1256;76123;-63
2023/09/26 14:00:20;;;;;;;13.80;9.50;;;;;;;27.30;37.09;101202.08;105434;1264;66879;-66
2023/09/26 14:02:52;;;;;;;11.90;9.80;;;;;;;27.22;37.90;101200.92;105058;1262;72132;-64
2023/09/26 14:05:23;;;;;;;11.00;8.90;;;;;;;27.07;38.42;101196.16;104842;1256;63937;-64
2023/09/26 14:07:51;;;;;;;10.70;9.40;;;;;;;26.96;38.93;101195.95;104866;1259;60026;-65
2023/09/26 14:10:21;;;;;;;13.40;9.30;;;;;;;26.84;39.06;101197.09;104591;1262;76402;-65
2023/09/26 14:12:50;;;;;;;9.60;8.50;;;;;;;26.73;39.74;101197.20;104893;1257;67405;-64
2023/09/26 14:15:18;;;;;;;11.80;9.70;;;;;;;26.62;40.24;101198.00;105161;1256;74597;-66
2023/09/26 14:17:46;;;;;;;10.30;8.10;;;;;;;26.50;40.58;101197.40;104988;1258;61584;-64
2023/09/26 14:20:14;;;;;;;10.80;8.30;;;;;;;26.39;40.90;101195.18;105199;1256;61775;-65
2023/09/26 14:22:42;;;;;;;9.40;7.80;;;;;;;26.29;41.29;101197.84;104996;1256;75765;-64
2023/09/26 14:25:11;;;;;;;11.00;8.10;;;;;;;26.17;41.94;101199.20;105317;1262;68276;-64
2023/09/26 14:27:39;;;;;;;10.00;7.20;;;;;;;26.05;42.28;101197.30;105238;1259;75247;-64
2023/09/26 14:30:08;;;;;;;10.60;8.50;;;;;;;25.93;42.59;101200.38;105552;1256;62569;-65
2023/09/26 14:32:37;;;;;;;10.90;7.70;;;;;;;25.81;43.10;101196.75;105364;1259;61753;-64
2023/09/26 14:41:43;;;;;;;15.40;8.30;;;;;;;25.43;43.78;101207.92;102435;1290;600672;-66
2023/09/26 14:44:11;;;;;;;10.40;7.90;;;;;;;25.29;43.97;101205.44;104946;1270;60057;-63
2023/09/26 14:46:45;;;;;;;9.60;8.20;;;;;;;25.18;44.38;101204.73;105049;1271;59232;-66
2023/09/26 14:49:13;;;;;;;12.10;8.90;;;;;;;25.08;44.96;101202.93;105009;1265;72251;-66
2023/09/26 14:51:41;;;;;;;11.60;8.80;;;;;;;24.96;45.30;101202.20;104959;1267;66071;-66
2023/09/26 14:54:09;;;;;;;14.00;9.50;;;;;;;24.85;45.95;101205.06;105373;1269;198840;-65
2023/09/26 14:56:37;;;;;;;15.30;10.00;;;;;;;24.74;46.38;101206.41;105472;1261;60118;-66
2023/09/26 14:59:05;;;;;;;12.80;9.80;;;;;;;24.64;47.00;101209.52;105395;1261;62553;-65
2023/09/26 15:01:33;;;;;;;12.60;9.10;;;;;;;24.53;46.68;101206.66;105871;1255;73972;-65
2023/09/26 15:04:02;;;;;;;13.50;8.60;;;;;;;24.43;47.62;101207.09;106110;1254;69471;-66
2023/09/26 15:14:18;;;;;;;14.20;10.40;;;;;;;24.01;50.68;101213.23;102059;1290;601524;-63
2023/09/26 15:16:45;;;;;;;13.70;9.80;;;;;;;23.88;51.40;101212.44;104407;1266;59218;-64
2023/09/26 15:19:13;;;;;;;14.70;10.10;;;;;;;23.77;51.94;101212.59;104658;1266;59332;-65
2023/09/26 15:21:41;;;;;;;11.50;8.10;;;;;;;23.67;52.27;101212.70;104518;1269;73813;-64
2023/09/26 15:24:10;;;;;;;13.40;8.10;;;;;;;23.57;52.12;101215.53;104247;1266;68070;-65
2023/09/26 15:26:38;;;;;;;12.50;8.70;;;;;;;23.49;52.67;101214.21;104607;1267;71418;-64
2023/09/26 15:29:07;;;;;;;11.20;7.70;;;;;;;23.40;53.52;101216.96;104641;1267;181400;-64
2023/09/26 15:31:34;;;;;;;12.40;8.90;;;;;;;23.30;54.64;101221.14;104887;1264;59291;-64
2023/09/26 15:34:04;;;;;;;11.70;7.70;;;;;;;23.23;55.85;101218.31;104957;1262;75028;-65
2023/09/26 15:36:32;;;;;;;15.60;8.30;;;;;;;23.13;57.37;101222.20;104731;1265;67823;-64
2023/09/26 15:39:00;;;;;;;16.90;8.30;;;;;;;23.01;58.54;101218.46;104604;1261;76012;-64
2023/09/26 15:41:28;;;;;;;14.90;8.50;;;;;;;22.88;60.02;101218.80;104809;1262;59740;-64
2023/09/26 15:43:56;;;;;;;12.10;8.00;;;;;;;22.76;61.21;101216.54;104778;1260;62735;-65
2023/09/26 15:46:23;;;;;;;11.00;8.50;;;;;;;22.67;61.40;101219.63;104990;1254;71887;-64
2023/09/26 15:48:51;;;;;;;15.00;8.60;;;;;;;22.56;63.20;101221.58;105054;1255;66139;-64
2023/09/26 15:51:19;;;;;;;12.60;8.40;;;;;;;22.45;65.40;101224.19;104995;1254;72791;-64
2023/09/26 15:53:48;;;;;;;16.50;9.60;;;;;;;22.32;67.53;101222.56;105773;1254;62560;-66
2023/09/26 15:56:16;;;;;;;13.30;9.60;;;;;;;22.19;69.38;101224.19;105170;1259;59870;-64
2023/09/26 15:58:45;;;;;;;15.40;9.60;;;;;;;22.06;71.56;101228.80;105309;1255;73473;-64
2023/09/26 16:01:14;;;;;;;16.00;10.80;;;;;;;21.92;76.61;101232.02;105327;1256;70422;-64
2023/09/26 16:03:44;;;;;;;15.00;9.00;;;;;;;21.77;79.98;101229.04;105260;1256;73130;-65
2023/09/26 16:06:13;;;;;;;13.70;9.60;;;;;;;21.62;81.84;101232.02;105287;1260;59695;-64
2023/09/26 16:08:45;;;;;;;13.80;8.30;;;;;;;21.50;82.86;101233.70;105082;1254;60090;-65
2023/09/26 16:11:13;;;;;;;13.20;8.50;;;;;;;21.40;84.47;101232.70;105780;1255;73048;-64
2023/09/26 16:13:41;;;;;;;14.70;8.20;;;;;;;21.30;85.87;101234.14;105470;1257;70280;-66
2023/09/26 16:16:27;;;;;;;15.90;9.30;;;;;;;21.18;88.45;101234.55;105036;1254;72712;-64
2023/09/26 16:18:57;;;;;;;10.10;8.10;;;;;;;21.08;90.13;101234.90;105261;1260;59909;-63
2023/09/26 16:21:25;;;;;;;13.80;7.90;;;;;;;20.98;91.33;101240.70;105852;1256;62159;-64
2023/09/26 16:23:54;;;;;;;12.60;7.70;;;;;;;20.88;94.06;101238.44;105548;1258;75941;-62
2023/09/26 16:26:23;;;;;;;9.90;7.10;;;;;;;20.80;94.30;101238.60;105050;1258;69943;-62
2023/09/26 16:28:51;;;;;;;9.50;6.30;;;;;;;20.75;94.52;101239.02;106566;1256;72739;-62
2023/09/26 16:31:20;;;;;;;9.50;6.80;;;;;;;20.71;94.53;101241.45;105043;1255;62620;-64
2023/09/26 16:33:48;;;;;;;10.60;7.20;;;;;;;20.69;93.87;101239.63;104912;1256;60584;-62
2023/09/26 16:36:17;;;;;;;10.30;6.60;;;;;;;20.67;94.76;101245.00;105273;1256;73029;-63
2023/09/26 16:38:51;;;;;;;12.70;7.40;;;;;;;20.65;95.06;101244.16;105178;1258;69410;-61
2023/09/26 16:41:19;;;;;;;11.30;7.10;;;;;;;20.63;94.70;101246.23;105157;1254;74232;-64
2023/09/26 16:43:47;;;;;;;10.90;7.70;;;;;;;20.61;93.78;101251.76;105122;1260;64118;-62
2023/09/26 16:46:15;;;;;;;11.20;7.00;;;;;;;20.60;94.31;101251.16;105712;1254;62539;-62
2023/09/26 16:48:43;;;;;;;11.40;7.00;;;;;;;20.54;94.61;101252.79;105693;1253;75137;-62
2023/09/26 16:51:11;;;;;;;10.80;7.80;;;;;;;20.50;95.35;101250.39;106536;1255;68771;-64
2023/09/26 16:53:39;;;;;;;10.80;7.20;;;;;;;20.45;96.20;101253.05;105675;1256;74028;-62
2023/09/26 16:56:07;;;;;;;15.70;7.70;;;;;;;20.39;98.04;101255.20;105534;1252;60667;-62
2023/09/26 16:58:36;;;;;;;15.70;10.20;;;;;;;20.33;99.22;101258.95;105698;1257;61637;-62
2023/09/26 17:01:10;;;;;;;24.70;9.50;;;;;;;20.24;99.95;101258.61;105768;1256;75522;-62
2023/09/26 17:03:38;;;;;;;20.70;9.00;;;;;;;20.11;100.00;101260.09;105452;1253;69816;-62
2023/09/26 17:06:06;;;;;;;13.60;9.90;;;;;;;19.98;100.00;101264.69;105880;1257;74731;-61
2023/09/26 17:08:35;;;;;;;22.20;10.00;;;;;;;19.85;100.00;101270.50;105916;1257;61577;-62
2023/09/26 17:11:03;;;;;;;14.10;8.10;;;;;;;19.74;100.00;101273.77;105884;1253;63452;-63
2023/09/26 17:13:33;;;;;;;12.30;8.10;;;;;;;19.65;100.00;101275.93;105632;1257;75907;-62
2023/09/26 17:16:01;;;;;;;13.10;8.40;;;;;;;19.57;100.00;101271.70;105771;1257;68241;-62
2023/09/26 17:18:28;;;;;;;14.80;8.10;;;;;;;19.54;100.00;101274.25;105692;1254;74188;-62
2023/09/26 17:20:57;;;;;;;11.20;6.80;;;;;;;19.52;100.00;101270.27;106034;1253;63059;-63
2023/09/26 17:23:25;;;;;;;16.40;7.60;;;;;;;19.50;100.00;101271.27;105822;1254;59818;-63
2023/09/26 17:25:53;;;;;;;10.00;7.10;;;;;;;19.49;100.00;101273.73;105623;1257;75595;-61
2023/09/26 17:28:21;;;;;;;14.70;7.80;;;;;;;19.46;100.00;101274.13;105699;1253;69839;-62
2023/09/26 17:30:52;;;;;;;11.70;7.80;;;;;;;19.44;100.00;101275.28;105525;1258;73476;-61
2023/09/26 17:33:20;;;;;;;11.80;8.20;;;;;;;19.42;100.00;101276.05;105527;1253;61462;-64
2023/09/26 17:35:48;;;;;;;12.20;8.10;;;;;;;19.41;100.00;101279.82;106069;1257;61480;-61
2023/09/26 17:38:16;;;;;;;12.40;7.60;;;;;;;19.40;100.00;101276.45;105563;1254;75829;-61
2023/09/26 17:40:44;;;;;;;9.60;6.60;;;;;;;19.36;100.00;101283.84;106252;1254;69008;-61
2023/09/26 17:43:12;;;;;;;12.60;7.50;;;;;;;19.29;100.00;101285.40;105915;1253;74918;-63
2023/09/26 17:45:40;;;;;;;12.20;6.90;;;;;;;19.22;100.00;101286.23;105647;1257;62664;-62
2023/09/26 17:48:08;;;;;;;12.10;7.10;;;;;;;19.16;100.00;101285.79;105656;1253;62559;-61
2023/09/26 17:50:36;;;;;;;8.70;6.20;;;;;;;19.10;100.00;101284.52;105719;1253;75349;-61
2023/09/26 17:53:04;;;;;;;10.20;6.90;;;;;;;19.04;100.00;101287.50;106008;1254;68369;-63
2023/09/26 17:55:32;;;;;;;8.70;6.40;;;;;;;19.00;100.00;101290.29;105801;1253;75873;-61
2023/09/26 17:58:00;;;;;;;10.80;7.60;;;;;;;18.99;100.00;101289.13;105748;1253;63027;-61
2023/09/26 18:00:28;;;;;;;11.70;6.60;;;;;;;18.93;100.00;101285.09;105715;1256;61429;-62
2023/09/26 18:02:57;;;;;;;11.50;8.00;;;;;;;18.87;100.00;101283.50;105886;1253;75446;-64
2023/09/26 18:05:25;;;;;;;11.90;7.20;;;;;;;18.82;100.00;101286.91;105829;1253;68571;-63
2023/09/26 18:07:53;;;;;;;9.40;6.90;;;;;;;18.77;100.00;101285.48;105513;1253;75274;-61
2023/09/26 18:10:21;;;;;;;10.70;7.70;;;;;;;18.73;100.00;101285.73;105635;1256;61576;-61
2023/09/26 18:12:49;;;;;;;15.80;8.10;;;;;;;18.72;100.00;101285.79;105593;1257;61468;-63
2023/09/26 18:15:19;;;;;;;20.50;16.10;;;;;;;18.74;100.00;101283.45;105521;1253;75509;-62
2023/09/26 18:17:47;;;;;;;14.30;10.00;;;;;;;18.72;100.00;101285.42;105350;1256;70139;-61
2023/09/26 18:20:15;;;;;;;15.60;10.40;;;;;;;18.64;100.00;101283.06;105637;1253;75285;-62
2023/09/26 18:22:44;;;;;;;15.80;10.90;;;;;;;18.55;100.00;101284.54;105412;1258;61527;-61
2023/09/26 18:25:12;;;;;;;15.30;10.80;;;;;;;18.45;100.00;101286.04;105711;1253;61492;-63
2023/09/26 18:27:40;;;;;;;26.20;18.20;;;;;;;18.37;100.00;101286.52;105433;1253;75979;-62
2023/09/26 18:30:08;;;;;;;27.80;20.40;;;;;;;18.29;100.00;101287.61;105650;1253;67744;-60
2023/09/26 18:32:36;;;;;;;29.80;20.20;;;;;;;18.19;100.00;101286.31;105626;1257;75758;-62
2023/09/26 18:35:08;;;;;;;25.90;19.20;;;;;;;18.09;100.00;101290.64;105640;1258;61920;-61
2023/09/26 18:37:36;;;;;;;24.50;15.60;;;;;;;17.99;100.00;101292.33;105739;1253;61368;-61
2023/09/26 18:40:05;;;;;;;17.20;12.90;;;;;;;17.89;100.00;101296.11;105781;1252;74477;-62
2023/09/26 18:42:33;;;;;;;17.20;12.40;;;;;;;17.82;100.00;101305.73;105909;1253;69203;-63
2023/09/26 18:45:01;;;;;;;17.50;13.60;;;;;;;17.76;100.00;101299.62;105758;1257;77348;-62
2023/09/26 18:47:29;;;;;;;18.00;13.50;;;;;;;17.72;100.00;101299.44;105671;1258;63585;-61
2023/09/26 18:49:57;;;;;;;17.80;12.90;;;;;;;17.65;100.00;101297.02;105664;1253;61842;-62
2023/09/26 18:52:26;;;;;;;18.10;11.70;;;;;;;17.57;100.00;101294.01;105716;1253;77606;-63
2023/09/26 18:54:53;;;;;;;20.10;11.20;;;;;;;17.51;100.00;101291.70;105737;1257;69143;-61
2023/09/26 18:57:21;;;;;;;14.30;10.10;;;;;;;17.45;100.00;101294.22;105708;1253;74121;-62
2023/09/26 18:59:49;;;;;;;12.80;8.90;;;;;;;17.43;100.00;101294.02;105608;1253;61949;-61
2023/09/26 19:02:17;;;;;;;15.80;9.00;;;;;;;17.43;100.00;101294.55;105714;1257;61374;-62
2023/09/26 19:04:46;;;;;;;11.10;8.20;;;;;;;17.47;100.00;101296.20;105769;1253;75792;-63
2023/09/26 19:07:15;;;;;;;9.40;7.90;;;;;;;17.56;100.00;101295.80;105659;1257;67945;-63
2023/09/26 19:09:43;;;;;;;12.90;7.60;;;;;;;17.60;100.00;101292.99;105744;1253;75212;-61
2023/09/26 19:12:11;;;;;;;10.00;7.30;;;;;;;17.61;100.00;101293.15;105644;1257;62497;-61
2023/09/26 19:14:39;;;;;;;11.30;8.10;;;;;;;17.61;100.00;101294.45;105778;1252;63958;-63
2023/09/26 19:17:07;;;;;;;10.40;8.00;;;;;;;17.59;100.00;101294.50;105836;1253;73750;-63
2023/09/26 19:19:35;;;;;;;14.90;7.90;;;;;;;17.56;100.00;101288.45;105722;1257;70007;-60
2023/09/26 19:22:03;;;;;;;12.90;8.10;;;;;;;17.49;100.00;101290.33;105733;1252;74466;-60
2023/09/26 19:24:31;;;;;;;15.90;8.50;;;;;;;17.43;100.00;101289.84;105718;1257;60458;-63
2023/09/26 19:26:58;;;;;;;15.00;8.50;;;;;;;17.35;100.00;101286.80;105709;1254;59714;-60
2023/09/26 19:29:26;;;;;;;14.20;7.90;;;;;;;17.30;100.00;101286.43;105709;1254;76872;-62
2023/09/26 19:31:54;;;;;;;17.90;8.50;;;;;;;17.26;100.00;101282.16;105653;1253;69794;-60
2023/09/26 19:34:22;;;;;;;12.00;9.20;;;;;;;17.24;100.00;101282.45;105808;1253;73697;-61
2023/09/26 19:36:50;;;;;;;12.70;9.70;;;;;;;17.24;100.00;101280.83;105618;1253;61797;-61
2023/09/26 19:39:18;;;;;;;13.70;9.70;;;;;;;17.27;100.00;101278.12;105723;1257;60642;-62
2023/09/26 19:41:46;;;;;;;14.40;9.40;;;;;;;17.32;100.00;101277.83;105625;1255;77006;-63
2023/09/26 19:44:14;;;;;;;14.60;9.30;;;;;;;17.36;100.00;101279.14;105498;1253;65740;-63
2023/09/26 19:46:42;;;;;;;18.20;10.10;;;;;;;17.40;100.00;101278.08;105587;1254;71477;-65
2023/09/26 19:49:10;;;;;;;15.00;9.30;;;;;;;17.45;100.00;101282.63;105676;1256;64250;-67
2023/09/26 19:51:38;;;;;;;12.00;9.40;;;;;;;17.50;100.00;101282.66;105499;1257;62900;-64
2023/09/26 19:54:06;;;;;;;14.30;9.30;;;;;;;17.50;100.00;101284.00;105744;1253;74499;-63
2023/09/26 19:56:33;;;;;;;16.00;10.30;;;;;;;17.47;100.00;101284.96;105209;1257;66805;-63
2023/09/26 19:59:02;;;;;;;14.70;9.50;;;;;;;17.42;100.00;101286.30;105363;1257;72945;-61
2023/09/26 20:01:30;;;;;;;14.30;10.40;;;;;;;17.37;100.00;101284.11;105618;1253;60390;-63
2023/09/26 20:03:58;;;;;;;12.40;10.40;;;;;;;17.30;100.00;101283.91;105494;1253;60673;-63
2023/09/26 20:06:26;;;;;;;15.90;10.30;;;;;;;17.23;100.00;101280.18;105357;1258;73876;-65
2023/09/26 20:08:55;;;;;;;13.40;10.10;;;;;;;17.19;100.00;101286.90;105141;1258;69662;-62
2023/09/26 20:11:23;;;;;;;12.70;10.00;;;;;;;17.16;100.00;101288.85;105488;1257;72859;-64
2023/09/26 20:13:51;;;;;;;15.00;10.60;;;;;;;17.12;100.00;101288.16;105258;1258;61218;-61
2023/09/26 20:16:19;;;;;;;13.60;9.40;;;;;;;17.09;100.00;101285.33;105616;1253;60460;-62
2023/09/26 20:18:47;;;;;;;19.00;11.30;;;;;;;17.04;100.00;101284.33;105558;1253;72211;-64
2023/09/26 20:21:15;;;;;;;15.60;11.80;;;;;;;17.08;100.00;101282.04;105432;1253;67079;-63
2023/09/26 20:31:31;;;;;;;16.80;11.90;;;;;;;17.07;100.00;101293.05;102087;1292;600758;-62
2023/09/26 20:33:59;;;;;;;13.90;11.60;;;;;;;16.90;100.00;101292.45;104570;1272;60072;-62
2023/09/26 20:36:27;;;;;;;19.60;12.50;;;;;;;16.77;100.00;101298.00;104831;1270;59907;-62
2023/09/26 20:38:55;;;;;;;16.00;11.70;;;;;;;16.67;100.00;101305.60;104782;1266;72328;-61
2023/09/26 20:41:23;;;;;;;16.80;10.80;;;;;;;16.56;100.00;101300.25;104831;1271;67158;-62
2023/09/26 20:43:51;;;;;;;16.40;12.20;;;;;;;16.44;100.00;101300.48;104788;1269;72657;-62
2023/09/26 20:46:19;;;;;;;17.50;11.40;;;;;;;16.32;100.00;101302.21;104206;1269;184684;-64
2023/09/26 20:48:47;;;;;;;13.70;10.30;;;;;;;16.22;100.00;101301.20;105084;1260;60158;-62
2023/09/26 20:51:15;;;;;;;16.10;10.30;;;;;;;16.13;100.00;101296.05;105131;1268;72279;-65
2023/09/26 20:53:42;;;;;;;15.00;8.90;;;;;;;16.06;100.00;101294.30;104570;1267;66927;-62
2023/09/26 20:56:10;;;;;;;14.00;9.40;;;;;;;16.03;100.00;101296.56;104779;1262;72687;-61
2023/09/26 20:58:38;;;;;;;19.50;11.10;;;;;;;16.02;100.00;101297.63;104727;1267;60707;-61
2023/09/26 21:04:12;;;;;;;13.80;9.90;;;;;;;15.91;100.00;101300.28;102691;1278;72408;-60
2023/09/26 21:06:40;;;;;;;16.30;10.10;;;;;;;15.84;100.00;101300.96;104557;1279;67015;-62
2023/09/26 21:09:08;;;;;;;14.40;10.40;;;;;;;15.76;100.00;101300.43;104380;1274;72717;-60
2023/09/26 21:11:36;;;;;;;16.20;11.40;;;;;;;15.69;100.00;101297.30;104403;1278;59778;-62
2023/09/26 21:14:04;;;;;;;17.90;11.30;;;;;;;15.62;100.00;101300.54;104038;1272;60142;-65
2023/09/26 21:16:32;;;;;;;16.20;11.90;;;;;;;15.53;100.00;101298.92;104585;1272;73788;-64
2023/09/26 21:19:00;;;;;;;16.90;10.50;;;;;;;15.45;100.00;101298.73;104298;1278;68177;-62
2023/09/26 21:21:28;;;;;;;18.90;13.00;;;;;;;15.36;100.00;101299.86;103980;1272;72782;-60
2023/09/26 21:23:56;;;;;;;16.50;13.50;;;;;;;15.29;100.00;101303.33;104467;1272;59746;-63
2023/09/26 21:26:24;;;;;;;22.70;13.70;;;;;;;15.24;100.00;101303.95;104388;1277;59591;-61
2023/09/26 21:36:37;;;;;;;18.10;13.90;;;;;;;15.06;100.00;101307.32;102299;1303;600265;-64
2023/09/26 21:39:05;;;;;;;17.00;13.60;;;;;;;15.01;100.00;101310.41;104829;1270;60160;-61
2023/09/26 21:41:33;;;;;;;20.30;13.70;;;;;;;15.00;100.00;101311.27;104683;1267;60077;-61
2023/09/26 21:44:00;;;;;;;21.30;13.40;;;;;;;14.97;100.00;101313.19;104695;1267;70982;-62
2023/09/26 21:46:28;;;;;;;20.40;13.40;;;;;;;14.95;100.00;101315.42;104823;1267;67734;-62
2023/09/26 21:48:56;;;;;;;27.30;13.60;;;;;;;14.92;100.00;101315.08;104877;1280;72683;-61
2023/09/26 21:51:24;;;;;;;17.80;12.60;;;;;;;14.88;100.00;101316.86;104594;1267;196598;-61
2023/09/26 21:53:52;;;;;;;17.50;11.90;;;;;;;14.83;100.00;101309.90;104828;1264;58816;-61
2023/09/26 21:56:19;;;;;;;15.00;10.90;;;;;;;14.81;100.00;101308.23;105209;1267;72330;-63
2023/09/26 21:58:47;;;;;;;15.10;11.30;;;;;;;14.82;100.00;101303.98;105111;1264;66095;-64
2023/09/26 22:01:15;;;;;;;17.40;9.60;;;;;;;14.88;100.00;101306.47;104593;1267;72741;-61
2023/09/26 22:03:43;;;;;;;13.80;10.50;;;;;;;14.96;100.00;101308.54;104811;1270;59857;-62
2023/09/26 22:06:12;;;;;;;19.40;14.00;;;;;;;15.05;100.00;101303.17;105528;1264;60671;-61
2023/09/26 22:08:40;;;;;;;17.40;11.90;;;;;;;15.08;100.00;101303.74;104733;1267;72209;-61
2023/09/26 22:11:08;;;;;;;20.70;12.40;;;;;;;15.05;100.00;101299.41;104699;1270;67455;-61
2023/09/26 22:13:36;;;;;;;18.80;11.90;;;;;;;15.00;100.00;101299.86;104568;1267;71707;-62
2023/09/26 22:16:03;;;;;;;16.70;11.10;;;;;;;14.96;100.00;101299.53;104550;1270;60437;-61
2023/09/26 22:18:32;;;;;;;15.10;9.90;;;;;;;14.93;100.00;101298.59;104618;1271;59551;-63
2023/09/26 22:29:06;;;;;;;18.80;11.70;;;;;;;15.02;100.00;101301.20;102446;1292;614783;-61
2023/09/26 22:31:34;;;;;;;21.00;11.00;;;;;;;14.96;100.00;101302.25;105021;1269;60380;-64
2023/09/26 22:34:02;;;;;;;17.00;11.70;;;;;;;14.96;100.00;101304.00;104541;1264;60212;-61
2023/09/26 22:36:29;;;;;;;18.80;12.90;;;;;;;14.96;100.00;101303.52;104960;1267;72245;-63
2023/09/26 22:38:56;;;;;;;19.10;14.30;;;;;;;14.93;100.00;101307.58;104798;1268;66082;-61
2023/09/26 22:41:23;;;;;;;20.70;15.00;;;;;;;14.87;100.00;101310.37;104480;1262;186047;-61
2023/09/26 22:43:50;;;;;;;19.20;14.10;;;;;;;14.80;100.00;101309.09;104764;1263;60974;-64
2023/09/26 22:46:17;;;;;;;21.80;14.30;;;;;;;14.71;100.00;101310.20;104748;1268;59551;-61
2023/09/26 22:48:45;;;;;;;18.20;13.40;;;;;;;14.64;100.00;101307.41;104934;1267;71880;-63
2023/09/26 22:51:11;;;;;;;19.70;13.60;;;;;;;14.57;100.00;101310.48;104879;1268;66493;-61
2023/09/26 22:53:38;;;;;;;17.00;11.80;;;;;;;14.52;100.00;101311.39;105330;1266;72746;-65
2023/09/26 22:56:05;;;;;;;20.50;11.90;;;;;;;14.53;100.00;101311.24;105088;1263;61023;-62
2023/09/26 22:58:33;;;;;;;19.00;12.70;;;;;;;14.58;100.00;101310.36;105161;1262;59804;-62
2023/09/26 23:01:00;;;;;;;19.50;12.90;;;;;;;14.57;100.00;101313.23;104910;1263;73072;-63
2023/09/26 23:03:28;;;;;;;22.30;15.20;;;;;;;14.56;100.00;101316.85;106496;1263;65721;-61
2023/09/26 23:05:55;;;;;;;25.20;18.80;;;;;;;14.53;100.00;101316.16;105333;1268;72577;-64
2023/09/26 23:08:22;;;;;;;32.30;16.90;;;;;;;14.48;100.00;101321.80;105068;1263;62900;-62
2023/09/26 23:10:49;;;;;;;25.90;16.60;;;;;;;14.41;100.00;101327.36;106086;1256;60300;-63
2023/09/26 23:13:16;;;;;;;27.60;17.50;;;;;;;14.31;100.00;101333.73;105645;1255;72762;-61
2023/09/26 23:15:43;;;;;;;25.30;17.80;;;;;;;14.24;100.00;101331.97;105918;1255;67259;-60
2023/09/26 23:18:10;;;;;;;22.20;16.80;;;;;;;14.18;100.00;101333.38;105896;1257;72587;-61
2023/09/26 23:20:39;;;;;;;21.20;14.90;;;;;;;14.12;100.00;101326.41;108313;1254;59260;-62
2023/09/26 23:23:06;;;;;;;22.50;15.10;;;;;;;14.06;100.00;101329.02;105762;1257;59602;-62
2023/09/26 23:25:34;;;;;;;21.70;14.10;;;;;;;14.01;100.00;101329.14;108164;1254;73248;-61
2023/09/26 23:28:00;;;;;;;24.30;15.80;;;;;;;13.98;100.00;101332.30;105913;1256;67142;-61
2023/09/26 23:30:28;;;;;;;22.50;15.70;;;;;;;13.96;100.00;101339.15;105850;1254;72675;-61
2023/09/26 23:32:55;;;;;;;21.30;16.00;;;;;;;13.93;100.00;101339.02;105856;1256;60828;-60